Time;durP1;ratioP1;P1;durP2;ratioP2;P2;SDS_P1;SDS_P2;PMS_P1;PMS_P2;Temp;Humidity;BMP_temperature;BMP_pressure;BME280_temperature;BME280_humidity;BME280_pressure;Samples;Min_cycle;Max_cycle;Signal;HPM_P1;HPM_P2
2021/11/15 00:01:43;;;;;;;;;;;20.50;42.30;;;;;;469931;253;1146;-46
2021/11/15 00:03:43;;;;;;;;;;;20.50;42.30;;;;;;470129;253;2440;-45
2021/11/15 00:05:45;;;;;;;;;;;20.50;42.30;;;;;;469928;254;1181;-46
2021/11/15 00:07:46;;;;;;;;;;;20.50;42.20;;;;;;469910;254;1239;-45
2021/11/15 00:09:47;;;;;;;;;;;20.50;42.20;;;;;;469909;254;1080;-45
2021/11/15 00:11:49;;;;;;;;;;;20.50;42.30;;;;;;469884;253;2136;-46
2021/11/15 00:13:50;;;;;;;;;;;20.50;42.30;;;;;;469870;254;1170;-45
2021/11/15 00:15:51;;;;;;;;;;;20.50;42.30;;;;;;469902;253;1246;-45
2021/11/15 00:17:53;;;;;;;;;;;20.50;42.30;;;;;;469874;254;1225;-45
2021/11/15 00:19:54;;;;;;;;;;;20.50;42.40;;;;;;470148;253;1059;-45
2021/11/15 00:21:55;;;;;;;;;;;20.50;42.40;;;;;;469932;253;1236;-46
2021/11/15 00:23:57;;;;;;;;;;;20.50;42.30;;;;;;470006;253;1051;-45
2021/11/15 00:25:58;;;;;;;;;;;20.40;42.40;;;;;;469883;254;1229;-45
2021/11/15 00:27:59;;;;;;;;;;;20.40;42.30;;;;;;470000;253;1210;-45
2021/11/15 00:30:01;;;;;;;;;;;20.50;42.40;;;;;;470013;253;1205;-45
2021/11/15 00:32:02;;;;;;;;;;;20.50;42.40;;;;;;469889;254;2136;-45
2021/11/15 00:34:03;;;;;;;;;;;20.50;42.30;;;;;;469914;254;1311;-45
2021/11/15 00:36:05;;;;;;;;;;;20.50;42.30;;;;;;469900;253;1167;-45
2021/11/15 00:38:06;;;;;;;;;;;20.50;42.30;;;;;;469987;253;1298;-45
2021/11/15 00:40:07;;;;;;;;;;;20.40;42.40;;;;;;470129;253;1213;-45
2021/11/15 00:42:09;;;;;;;;;;;20.50;42.40;;;;;;470019;253;1154;-46
2021/11/15 00:44:10;;;;;;;;;;;20.40;42.30;;;;;;470008;253;1170;-45
2021/11/15 00:46:11;;;;;;;;;;;20.50;42.40;;;;;;469831;253;1220;-45
2021/11/15 00:48:12;;;;;;;;;;;20.50;42.30;;;;;;469881;254;1187;-46
2021/11/15 00:50:14;;;;;;;;;;;20.40;42.30;;;;;;469927;254;1056;-45
2021/11/15 00:52:15;;;;;;;;;;;20.40;42.30;;;;;;470064;253;2195;-45
2021/11/15 00:54:16;;;;;;;;;;;20.50;42.40;;;;;;470320;253;1055;-45
2021/11/15 00:56:18;;;;;;;;;;;20.50;42.40;;;;;;469828;254;1125;-45
2021/11/15 00:58:19;;;;;;;;;;;20.50;42.40;;;;;;469902;254;1082;-45
2021/11/15 01:00:20;;;;;;;;;;;20.50;42.40;;;;;;470004;253;1264;-45
2021/11/15 01:02:22;;;;;;;;;;;20.50;42.20;;;;;;470029;253;1207;-45
2021/11/15 01:04:25;;;;;;;;;;;20.60;42.20;;;;;;469944;254;1088;-46
2021/11/15 01:06:24;;;;;;;;;;;20.70;42.00;;;;;;470227;253;2094;-46
2021/11/15 01:08:26;;;;;;;;;;;20.90;41.70;;;;;;470333;253;977;-45
2021/11/15 01:10:27;;;;;;;;;;;21.00;41.30;;;;;;469906;250;1206;-45
2021/11/15 01:12:28;;;;;;;;;;;21.10;41.20;;;;;;469860;253;2140;-45
2021/11/15 01:14:30;;;;;;;;;;;21.10;41.00;;;;;;470020;253;1322;-46
2021/11/15 01:16:31;;;;;;;;;;;21.10;40.80;;;;;;469985;253;1140;-46
2021/11/15 01:18:32;;;;;;;;;;;21.20;40.70;;;;;;469932;254;1256;-46
2021/11/15 01:20:34;;;;;;;;;;;21.30;40.70;;;;;;470129;253;1372;-45
2021/11/15 01:22:35;;;;;;;;;;;21.30;40.60;;;;;;469988;253;1214;-46
2021/11/15 01:24:36;;;;;;;;;;;21.40;40.60;;;;;;469963;254;1073;-45
2021/11/15 01:26:38;;;;;;;;;;;21.40;40.50;;;;;;470260;253;1162;-46
2021/11/15 01:28:39;;;;;;;;;;;21.40;40.50;;;;;;469968;253;1347;-46
2021/11/15 01:30:40;;;;;;;;;;;21.40;40.40;;;;;;469945;253;1462;-45
2021/11/15 01:32:41;;;;;;;;;;;21.40;40.30;;;;;;469934;253;2151;-46
2021/11/15 01:34:43;;;;;;;;;;;21.50;40.40;;;;;;470348;253;1200;-46
2021/11/15 01:36:44;;;;;;;;;;;21.50;40.30;;;;;;469992;253;1167;-46
2021/11/15 01:38:45;;;;;;;;;;;21.50;40.30;;;;;;470147;253;1319;-46
2021/11/15 01:40:47;;;;;;;;;;;21.50;40.20;;;;;;469881;254;1154;-45
2021/11/15 01:42:48;;;;;;;;;;;21.50;40.20;;;;;;469838;254;1150;-46
2021/11/15 01:44:49;;;;;;;;;;;21.50;40.10;;;;;;470002;253;1190;-46
2021/11/15 01:46:51;;;;;;;;;;;21.60;40.10;;;;;;470018;253;1223;-46
2021/11/15 01:48:52;;;;;;;;;;;21.60;40.10;;;;;;470012;253;1143;-46
2021/11/15 01:50:53;;;;;;;;;;;21.60;40.10;;;;;;469871;254;1503;-45
2021/11/15 01:52:55;;;;;;;;;;;21.70;40.10;;;;;;470281;253;2203;-45
2021/11/15 01:54:56;;;;;;;;;;;21.70;40.10;;;;;;469942;254;1100;-46
2021/11/15 01:56:57;;;;;;;;;;;21.60;40.00;;;;;;470012;253;1248;-45
2021/11/15 01:58:59;;;;;;;;;;;21.70;40.00;;;;;;469889;254;1121;-46
2021/11/15 02:01:00;;;;;;;;;;;21.70;40.00;;;;;;469935;253;1255;-46
2021/11/15 02:03:01;;;;;;;;;;;21.70;40.00;;;;;;470009;253;1063;-46
2021/11/15 02:05:02;;;;;;;;;;;21.70;39.90;;;;;;469924;254;1086;-45
2021/11/15 02:07:04;;;;;;;;;;;21.70;39.90;;;;;;470231;253;1209;-46
2021/11/15 02:09:05;;;;;;;;;;;21.80;39.90;;;;;;469973;253;1068;-46
2021/11/15 02:11:07;;;;;;;;;;;21.80;39.90;;;;;;469849;254;1130;-46
2021/11/15 02:13:08;;;;;;;;;;;21.80;39.90;;;;;;470084;253;2185;-46
2021/11/15 02:15:10;;;;;;;;;;;21.80;39.90;;;;;;469865;254;1144;-46
2021/11/15 02:17:11;;;;;;;;;;;21.80;39.80;;;;;;469781;253;2005;-46
2021/11/15 02:19:12;;;;;;;;;;;21.80;39.80;;;;;;469910;254;1116;-46
2021/11/15 02:21:14;;;;;;;;;;;21.80;39.70;;;;;;469874;253;1621;-46
2021/11/15 02:23:15;;;;;;;;;;;21.90;39.80;;;;;;469933;253;1108;-46
2021/11/15 02:25:16;;;;;;;;;;;21.80;39.70;;;;;;470250;253;1074;-46
2021/11/15 02:27:18;;;;;;;;;;;21.90;39.80;;;;;;469897;254;1287;-46
2021/11/15 02:29:19;;;;;;;;;;;21.90;39.80;;;;;;469904;254;1101;-46
2021/11/15 02:31:22;;;;;;;;;;;21.90;39.70;;;;;;469831;254;1579;-46
2021/11/15 02:33:22;;;;;;;;;;;21.90;39.70;;;;;;470187;253;2207;-46
2021/11/15 02:35:23;;;;;;;;;;;21.90;39.70;;;;;;469977;254;985;-46
2021/11/15 02:37:25;;;;;;;;;;;21.90;39.70;;;;;;469968;253;1170;-46
2021/11/15 02:39:26;;;;;;;;;;;21.90;39.70;;;;;;469949;254;1067;-46
2021/11/15 02:41:27;;;;;;;;;;;21.90;39.70;;;;;;470077;253;1010;-46
2021/11/15 02:43:28;;;;;;;;;;;21.90;39.70;;;;;;469911;254;1312;-46
2021/11/15 02:45:30;;;;;;;;;;;21.90;39.70;;;;;;470177;253;1188;-46
2021/11/15 02:47:31;;;;;;;;;;;21.90;39.60;;;;;;470114;249;1563;-45
2021/11/15 02:49:32;;;;;;;;;;;21.90;39.60;;;;;;470060;253;1091;-46
2021/11/15 02:51:34;;;;;;;;;;;22.00;39.60;;;;;;469923;253;1157;-46
2021/11/15 02:53:35;;;;;;;;;;;22.00;39.60;;;;;;469862;253;2132;-45
2021/11/15 02:55:36;;;;;;;;;;;22.00;39.60;;;;;;470017;253;1035;-46
2021/11/15 02:57:38;;;;;;;;;;;22.00;39.60;;;;;;470017;253;1440;-46
2021/11/15 02:59:39;;;;;;;;;;;22.00;39.60;;;;;;470292;253;1118;-46
2021/11/15 03:01:40;;;;;;;;;;;22.00;39.60;;;;;;470070;253;1245;-46
2021/11/15 03:03:42;;;;;;;;;;;22.00;39.60;;;;;;470371;249;1108;-46
2021/11/15 03:05:43;;;;;;;;;;;22.00;39.60;;;;;;469844;254;1085;-46
2021/11/15 03:07:45;;;;;;;;;;;22.00;39.60;;;;;;469922;253;1317;-46
2021/11/15 03:09:46;;;;;;;;;;;22.00;39.50;;;;;;469980;253;1226;-46
2021/11/15 03:11:47;;;;;;;;;;;22.00;39.50;;;;;;469940;254;1045;-46
2021/11/15 03:13:49;;;;;;;;;;;22.10;39.60;;;;;;470293;253;2195;-46
2021/11/15 03:15:50;;;;;;;;;;;22.00;39.50;;;;;;469920;253;1356;-46
2021/11/15 03:17:51;;;;;;;;;;;22.00;39.50;;;;;;469871;254;1131;-46
2021/11/15 03:19:53;;;;;;;;;;;22.10;39.50;;;;;;469929;254;1049;-45
2021/11/15 03:21:54;;;;;;;;;;;22.00;39.50;;;;;;469862;254;1074;-46
2021/11/15 03:23:55;;;;;;;;;;;22.00;39.50;;;;;;469950;254;1133;-46
2021/11/15 03:25:57;;;;;;;;;;;22.00;39.50;;;;;;469886;253;1290;-46
2021/11/15 03:27:58;;;;;;;;;;;22.10;39.50;;;;;;469932;254;1055;-45
2021/11/15 03:29:59;;;;;;;;;;;22.10;39.50;;;;;;469908;254;1134;-46
2021/11/15 03:32:01;;;;;;;;;;;22.10;39.50;;;;;;470003;253;1135;-46
2021/11/15 03:34:02;;;;;;;;;;;22.10;39.50;;;;;;470270;253;2140;-46
2021/11/15 03:36:03;;;;;;;;;;;22.10;39.40;;;;;;469979;253;1185;-46
2021/11/15 03:38:05;;;;;;;;;;;22.10;39.40;;;;;;469899;254;1357;-45
2021/11/15 03:40:08;;;;;;;;;;;22.10;39.40;;;;;;470078;253;1251;-46
2021/11/15 03:42:07;;;;;;;;;;;22.10;39.40;;;;;;470065;253;2480;-46
2021/11/15 03:44:08;;;;;;;;;;;22.10;39.40;;;;;;470255;253;1035;-46
2021/11/15 03:46:10;;;;;;;;;;;22.10;39.40;;;;;;469874;249;1526;-45
2021/11/15 03:48:11;;;;;;;;;;;22.10;39.40;;;;;;469975;254;1141;-46
2021/11/15 03:50:12;;;;;;;;;;;22.10;39.40;;;;;;470170;253;1053;-46
2021/11/15 03:52:14;;;;;;;;;;;22.10;39.40;;;;;;469804;254;1298;-46
2021/11/15 03:54:15;;;;;;;;;;;22.10;39.40;;;;;;470274;253;2129;-46
2021/11/15 03:56:16;;;;;;;;;;;22.20;39.40;;;;;;469945;253;1153;-46
2021/11/15 03:58:18;;;;;;;;;;;22.10;39.30;;;;;;470271;253;1155;-46
2021/11/15 04:00:19;;;;;;;;;;;22.10;39.40;;;;;;469952;253;1481;-46
2021/11/15 04:02:22;;;;;;;;;;;22.20;39.30;;;;;;469981;253;1284;-46
2021/11/15 04:04:27;;;;;;;;;;;22.20;39.40;;;;;;470237;253;2201;-46
2021/11/15 04:06:24;;;;;;;;;;;22.20;39.40;;;;;;470160;253;2089;-46
2021/11/15 04:08:24;;;;;;;;;;;22.20;39.30;;;;;;470250;253;2406;-46
2021/11/15 04:10:26;;;;;;;;;;;22.20;39.30;;;;;;469931;254;1062;-46
2021/11/15 04:12:27;;;;;;;;;;;22.20;39.30;;;;;;470211;253;1277;-46
2021/11/15 04:14:28;;;;;;;;;;;22.20;39.30;;;;;;470322;253;2199;-46
2021/11/15 04:16:29;;;;;;;;;;;22.20;39.30;;;;;;470012;253;1358;-46
2021/11/15 04:18:31;;;;;;;;;;;22.20;39.30;;;;;;470242;253;1124;-46
2021/11/15 04:20:32;;;;;;;;;;;22.20;39.30;;;;;;469979;253;1029;-46
2021/11/15 04:22:34;;;;;;;;;;;22.20;39.30;;;;;;470255;253;1214;-45
2021/11/15 04:24:35;;;;;;;;;;;22.20;39.30;;;;;;470142;253;1169;-46
2021/11/15 04:26:36;;;;;;;;;;;22.20;39.30;;;;;;469940;253;1299;-46
2021/11/15 04:28:37;;;;;;;;;;;22.20;39.30;;;;;;469855;254;1055;-46
2021/11/15 04:30:39;;;;;;;;;;;22.20;39.30;;;;;;470178;253;1417;-46
2021/11/15 04:32:40;;;;;;;;;;;22.20;39.30;;;;;;470058;253;1209;-46
2021/11/15 04:34:41;;;;;;;;;;;22.20;39.30;;;;;;470344;253;2191;-46
2021/11/15 04:36:43;;;;;;;;;;;22.20;39.20;;;;;;469920;253;1140;-46
2021/11/15 04:38:44;;;;;;;;;;;22.20;39.30;;;;;;470349;253;1069;-46
2021/11/15 04:40:45;;;;;;;;;;;22.20;39.30;;;;;;469921;253;1060;-45
2021/11/15 04:42:47;;;;;;;;;;;22.20;39.30;;;;;;469797;253;1078;-46
2021/11/15 04:44:48;;;;;;;;;;;22.20;39.30;;;;;;469928;253;1071;-45
2021/11/15 04:46:49;;;;;;;;;;;22.20;39.30;;;;;;469833;254;1314;-46
2021/11/15 04:48:51;;;;;;;;;;;22.20;39.20;;;;;;470292;253;1088;-46
2021/11/15 04:50:53;;;;;;;;;;;22.30;39.30;;;;;;470221;253;1094;-46
2021/11/15 04:52:54;;;;;;;;;;;22.20;39.20;;;;;;470269;253;1135;-46
2021/11/15 04:54:55;;;;;;;;;;;22.20;39.30;;;;;;469881;254;2191;-46
2021/11/15 04:56:57;;;;;;;;;;;22.30;39.20;;;;;;469777;253;1139;-45
2021/11/15 04:58:58;;;;;;;;;;;22.30;39.30;;;;;;470021;253;2432;-46
2021/11/15 05:00:59;;;;;;;;;;;22.30;39.20;;;;;;469789;254;1086;-46
2021/11/15 05:03:00;;;;;;;;;;;22.30;39.10;;;;;;469980;253;1369;-46
2021/11/15 05:05:02;;;;;;;;;;;22.30;39.10;;;;;;469896;254;1120;-47
2021/11/15 05:07:03;;;;;;;;;;;22.30;39.20;;;;;;469917;249;1250;-46
2021/11/15 05:09:04;;;;;;;;;;;22.30;39.10;;;;;;470329;253;1085;-46
2021/11/15 05:11:06;;;;;;;;;;;22.30;39.10;;;;;;469963;253;1192;-46
2021/11/15 05:13:07;;;;;;;;;;;22.30;39.10;;;;;;469864;253;2132;-46
2021/11/15 05:15:08;;;;;;;;;;;22.30;39.10;;;;;;469948;253;1090;-46
2021/11/15 05:17:10;;;;;;;;;;;22.30;39.10;;;;;;469811;254;1387;-45
2021/11/15 05:19:11;;;;;;;;;;;22.30;39.10;;;;;;469868;254;1142;-46
2021/11/15 05:21:12;;;;;;;;;;;22.40;39.10;;;;;;469887;253;1164;-46
2021/11/15 05:23:14;;;;;;;;;;;22.40;39.10;;;;;;469902;253;1076;-45
2021/11/15 05:25:15;;;;;;;;;;;22.40;39.10;;;;;;469916;253;1471;-46
2021/11/15 05:27:16;;;;;;;;;;;22.30;39.10;;;;;;469843;253;1241;-46
2021/11/15 05:29:18;;;;;;;;;;;22.40;39.10;;;;;;469821;254;1083;-46
2021/11/15 05:31:19;;;;;;;;;;;22.30;39.10;;;;;;470085;253;1176;-46
2021/11/15 05:33:20;;;;;;;;;;;22.30;39.10;;;;;;469953;253;2191;-46
2021/11/15 05:35:22;;;;;;;;;;;22.30;39.10;;;;;;470047;253;1128;-46
2021/11/15 05:37:23;;;;;;;;;;;22.40;39.20;;;;;;469950;253;1207;-46
2021/11/15 05:39:24;;;;;;;;;;;22.40;39.20;;;;;;469769;254;1136;-46
2021/11/15 05:41:26;;;;;;;;;;;22.40;39.20;;;;;;469853;253;1315;-46
2021/11/15 05:43:27;;;;;;;;;;;22.40;39.20;;;;;;469819;253;1075;-46
2021/11/15 05:45:28;;;;;;;;;;;22.40;39.10;;;;;;469819;253;1125;-46
2021/11/15 05:47:30;;;;;;;;;;;22.40;39.20;;;;;;469744;253;1379;-46
2021/11/15 05:49:31;;;;;;;;;;;22.40;39.10;;;;;;469838;253;1079;-46
2021/11/15 05:51:32;;;;;;;;;;;22.40;39.20;;;;;;469712;253;1172;-46
2021/11/15 05:53:35;;;;;;;;;;;22.40;39.20;;;;;;469709;253;2252;-46
2021/11/15 05:55:35;;;;;;;;;;;22.40;39.10;;;;;;469750;253;2503;-46
2021/11/15 05:57:37;;;;;;;;;;;22.40;39.10;;;;;;469704;253;1408;-46
2021/11/15 05:59:38;;;;;;;;;;;22.40;39.20;;;;;;469997;253;1105;-46
2021/11/15 06:01:39;;;;;;;;;;;22.40;39.10;;;;;;469555;253;1595;-46
2021/11/15 06:03:41;;;;;;;;;;;22.40;39.10;;;;;;469595;254;1347;-46
2021/11/15 06:05:42;;;;;;;;;;;22.40;39.10;;;;;;469834;253;1083;-46
2021/11/15 06:07:43;;;;;;;;;;;22.40;39.10;;;;;;469611;254;1189;-46
2021/11/15 06:09:44;;;;;;;;;;;22.40;39.10;;;;;;469714;254;1089;-46
2021/11/15 06:11:46;;;;;;;;;;;22.40;39.00;;;;;;469651;254;1338;-46
2021/11/15 06:13:47;;;;;;;;;;;22.50;39.10;;;;;;469942;253;2198;-46
2021/11/15 06:15:49;;;;;;;;;;;22.50;39.10;;;;;;469684;253;1179;-46
2021/11/15 06:17:50;;;;;;;;;;;22.50;39.10;;;;;;469708;253;1131;-46
2021/11/15 06:19:51;;;;;;;;;;;22.50;39.10;;;;;;469687;254;1270;-46
2021/11/15 06:21:52;;;;;;;;;;;22.50;39.10;;;;;;469554;253;1471;-45
2021/11/15 06:23:54;;;;;;;;;;;22.40;39.10;;;;;;469589;253;1203;-46
2021/11/15 06:25:55;;;;;;;;;;;22.40;39.10;;;;;;469596;254;1491;-46
2021/11/15 06:27:57;;;;;;;;;;;22.40;39.10;;;;;;469697;253;1260;-45
2021/11/15 06:29:58;;;;;;;;;;;22.50;39.10;;;;;;469566;253;1111;-46
2021/11/15 06:31:59;;;;;;;;;;;22.50;39.10;;;;;;469388;253;1545;-46
2021/11/15 06:34:01;;;;;;;;;;;22.50;39.10;;;;;;469505;253;2203;-46
2021/11/15 06:36:02;;;;;;;;;;;22.50;39.10;;;;;;469503;254;1357;-46
2021/11/15 06:38:03;;;;;;;;;;;22.50;39.10;;;;;;469626;254;1277;-46
2021/11/15 06:40:05;;;;;;;;;;;22.50;39.10;;;;;;469756;253;1143;-46
2021/11/15 06:42:07;;;;;;;;;;;22.50;39.00;;;;;;469470;254;1278;-46
2021/11/15 06:44:08;;;;;;;;;;;22.50;39.10;;;;;;469506;250;2130;-46
2021/11/15 06:46:09;;;;;;;;;;;22.50;39.10;;;;;;469487;254;1430;-46
2021/11/15 06:48:10;;;;;;;;;;;22.50;39.10;;;;;;469578;253;1187;-46
2021/11/15 06:50:11;;;;;;;;;;;22.50;39.00;;;;;;469529;254;1193;-46
2021/11/15 06:52:13;;;;;;;;;;;22.50;39.00;;;;;;469497;253;1444;-46
2021/11/15 06:54:14;;;;;;;;;;;22.50;39.00;;;;;;469509;253;2179;-46
2021/11/15 06:56:15;;;;;;;;;;;22.50;39.00;;;;;;469393;253;1342;-46
2021/11/15 06:58:17;;;;;;;;;;;22.50;39.00;;;;;;469558;253;1090;-46
2021/11/15 07:00:19;;;;;;;;;;;22.50;39.00;;;;;;469594;253;1176;-46
2021/11/15 07:02:20;;;;;;;;;;;22.50;39.00;;;;;;469398;254;1247;-46
2021/11/15 07:04:21;;;;;;;;;;;22.50;39.00;;;;;;469542;253;1228;-45
2021/11/15 07:06:22;;;;;;;;;;;22.50;39.00;;;;;;469480;249;1568;-46
2021/11/15 07:08:24;;;;;;;;;;;22.50;38.90;;;;;;469512;254;1313;-46
2021/11/15 07:10:25;;;;;;;;;;;22.50;38.90;;;;;;469526;253;1059;-46
2021/11/15 07:12:26;;;;;;;;;;;22.50;38.70;;;;;;469235;254;1314;-46
2021/11/15 07:14:28;;;;;;;;;;;22.50;38.90;;;;;;469275;253;2183;-46
2021/11/15 07:16:29;;;;;;;;;;;22.60;38.90;;;;;;469287;254;1169;-46
2021/11/15 07:18:32;;;;;;;;;;;22.50;38.80;;;;;;469343;254;1354;-46
2021/11/15 07:20:31;;;;;;;;;;;22.50;38.80;;;;;;469177;254;1495;-46
2021/11/15 07:22:33;;;;;;;;;;;22.60;38.90;;;;;;469153;253;1206;-46
2021/11/15 07:24:34;;;;;;;;;;;22.60;38.80;;;;;;469279;253;1228;-45
2021/11/15 07:26:35;;;;;;;;;;;22.60;38.80;;;;;;469365;253;1723;-46
2021/11/15 07:28:37;;;;;;;;;;;22.60;38.70;;;;;;469241;253;1149;-46
2021/11/15 07:30:39;;;;;;;;;;;22.60;38.80;;;;;;469181;253;1213;-46
2021/11/15 07:32:40;;;;;;;;;;;22.50;38.70;;;;;;469210;253;1243;-46
2021/11/15 07:34:41;;;;;;;;;;;22.50;38.70;;;;;;469215;253;2214;-45
2021/11/15 07:36:42;;;;;;;;;;;22.60;38.70;;;;;;469177;253;1325;-45
2021/11/15 07:38:44;;;;;;;;;;;22.60;38.80;;;;;;469197;253;1214;-46
2021/11/15 07:40:45;;;;;;;;;;;22.60;38.70;;;;;;469076;253;1338;-46
2021/11/15 07:42:46;;;;;;;;;;;22.50;38.70;;;;;;469039;253;1090;-46
2021/11/15 07:44:48;;;;;;;;;;;22.60;38.70;;;;;;469121;253;1390;-46
2021/11/15 07:46:49;;;;;;;;;;;22.50;38.70;;;;;;469063;253;1199;-46
2021/11/15 07:48:50;;;;;;;;;;;22.60;38.70;;;;;;469019;253;1103;-47
2021/11/15 07:50:52;;;;;;;;;;;22.50;38.60;;;;;;469216;253;1226;-45
2021/11/15 07:52:53;;;;;;;;;;;22.60;38.60;;;;;;469251;254;1130;-46
2021/11/15 07:54:54;;;;;;;;;;;22.50;38.60;;;;;;469228;254;2204;-46
2021/11/15 07:56:56;;;;;;;;;;;22.60;38.60;;;;;;469145;253;1368;-46
2021/11/15 07:58:57;;;;;;;;;;;22.60;38.60;;;;;;469173;254;1236;-47
2021/11/15 08:00:58;;;;;;;;;;;22.60;38.50;;;;;;469027;253;1303;-46
2021/11/15 08:03:00;;;;;;;;;;;22.60;38.50;;;;;;469076;253;1107;-46
2021/11/15 08:05:01;;;;;;;;;;;22.60;38.50;;;;;;469134;254;1240;-45
2021/11/15 08:07:03;;;;;;;;;;;22.60;38.50;;;;;;469169;254;1282;-46
2021/11/15 08:09:04;;;;;;;;;;;22.60;38.50;;;;;;469195;253;1116;-45
2021/11/15 08:11:05;;;;;;;;;;;22.60;38.50;;;;;;469188;253;1396;-46
2021/11/15 08:13:07;;;;;;;;;;;22.60;38.50;;;;;;469171;254;1229;-46
2021/11/15 08:15:08;;;;;;;;;;;22.60;38.50;;;;;;469233;254;2215;-47
2021/11/15 08:17:10;;;;;;;;;;;22.60;38.40;;;;;;469119;253;1262;-47
2021/11/15 08:19:11;;;;;;;;;;;22.60;38.50;;;;;;469199;253;1136;-47
2021/11/15 08:21:13;;;;;;;;;;;22.60;38.40;;;;;;469048;254;1326;-47
2021/11/15 08:23:14;;;;;;;;;;;22.60;38.40;;;;;;469336;254;1149;-46
2021/11/15 08:25:15;;;;;;;;;;;22.60;38.40;;;;;;469051;253;1122;-47
2021/11/15 08:27:16;;;;;;;;;;;22.60;38.30;;;;;;469268;254;1333;-47
2021/11/15 08:29:18;;;;;;;;;;;22.60;38.40;;;;;;469882;253;1133;-47
2021/11/15 08:31:19;;;;;;;;;;;22.60;38.40;;;;;;469384;254;1359;-47
2021/11/15 08:33:20;;;;;;;;;;;22.60;38.30;;;;;;469511;249;1259;-46
2021/11/15 08:35:22;;;;;;;;;;;22.60;38.30;;;;;;468993;253;2191;-47
2021/11/15 08:37:23;;;;;;;;;;;22.60;38.30;;;;;;468858;253;1272;-47
2021/11/15 08:39:24;;;;;;;;;;;22.60;38.30;;;;;;469048;253;1221;-47
2021/11/15 08:41:26;;;;;;;;;;;22.60;38.40;;;;;;469092;253;1310;-46
2021/11/15 08:43:27;;;;;;;;;;;22.60;38.30;;;;;;469099;253;1174;-46
2021/11/15 08:45:28;;;;;;;;;;;22.60;38.30;;;;;;468752;254;1266;-46
2021/11/15 08:47:30;;;;;;;;;;;22.60;38.30;;;;;;468837;253;1234;-47
2021/11/15 08:49:33;;;;;;;;;;;22.60;38.10;;;;;;468822;254;1174;-47
2021/11/15 08:51:35;;;;;;;;;;;22.60;38.20;;;;;;469145;253;2296;-46
2021/11/15 08:53:34;;;;;;;;;;;22.60;38.20;;;;;;468943;253;2000;-47
2021/11/15 08:55:35;;;;;;;;;;;22.60;38.20;;;;;;468990;253;2198;-46
2021/11/15 08:57:37;;;;;;;;;;;22.60;38.10;;;;;;469032;253;1245;-46
2021/11/15 08:59:38;;;;;;;;;;;22.60;38.20;;;;;;469060;254;1113;-46
2021/11/15 09:01:39;;;;;;;;;;;22.60;38.20;;;;;;468943;253;1218;-46
2021/11/15 09:03:41;;;;;;;;;;;22.60;38.10;;;;;;469017;253;1492;-46
2021/11/15 09:05:42;;;;;;;;;;;22.60;38.10;;;;;;468952;253;2477;-46
2021/11/15 09:07:44;;;;;;;;;;;22.60;38.10;;;;;;469669;244;1408;-46
2021/11/15 09:09:45;;;;;;;;;;;22.60;38.00;;;;;;469049;253;1116;-46
2021/11/15 09:11:46;;;;;;;;;;;22.60;38.10;;;;;;469052;254;1315;-47
2021/11/15 09:13:47;;;;;;;;;;;22.60;38.00;;;;;;469017;253;1301;-47
2021/11/15 09:15:49;;;;;;;;;;;22.60;38.00;;;;;;469064;253;2140;-46
2021/11/15 09:17:50;;;;;;;;;;;22.60;38.10;;;;;;469081;254;1395;-46
2021/11/15 09:19:51;;;;;;;;;;;22.60;38.00;;;;;;469115;253;1093;-46
2021/11/15 09:21:54;;;;;;;;;;;22.60;38.00;;;;;;468724;254;1311;-46
2021/11/15 09:23:54;;;;;;;;;;;22.60;38.00;;;;;;469679;253;3015;-46
2021/11/15 09:25:55;;;;;;;;;;;22.60;38.00;;;;;;469731;253;1342;-45
2021/11/15 09:27:57;;;;;;;;;;;22.60;37.90;;;;;;468385;253;1250;-46
2021/11/15 09:29:59;;;;;;;;;;;22.60;37.90;;;;;;468932;254;1099;-46
2021/11/15 09:32:01;;;;;;;;;;;22.60;37.90;;;;;;468949;253;1245;-46
2021/11/15 09:34:02;;;;;;;;;;;22.70;37.90;;;;;;468925;254;1242;-46
2021/11/15 09:36:04;;;;;;;;;;;22.70;37.90;;;;;;468934;249;2152;-45
2021/11/15 09:38:05;;;;;;;;;;;22.70;37.90;;;;;;468850;254;1169;-46
2021/11/15 09:40:06;;;;;;;;;;;22.60;37.80;;;;;;469084;253;1079;-46
2021/11/15 09:42:08;;;;;;;;;;;22.70;37.80;;;;;;469685;244;1356;-46
2021/11/15 09:44:09;;;;;;;;;;;22.60;37.80;;;;;;469063;253;1415;-46
2021/11/15 09:46:10;;;;;;;;;;;22.70;37.80;;;;;;468967;253;1345;-46
2021/11/15 09:48:11;;;;;;;;;;;22.60;37.80;;;;;;468916;249;1315;-45
2021/11/15 09:50:13;;;;;;;;;;;22.70;37.80;;;;;;468970;253;1409;-46
2021/11/15 09:52:14;;;;;;;;;;;22.60;37.80;;;;;;468802;254;1416;-46
2021/11/15 09:54:15;;;;;;;;;;;22.60;37.90;;;;;;468875;253;1151;-46
2021/11/15 09:56:19;;;;;;;;;;;22.60;38.00;;;;;;469027;253;2132;-46
2021/11/15 09:58:18;;;;;;;;;;;22.50;38.10;;;;;;469011;253;1778;-46
2021/11/15 10:00:20;;;;;;;;;;;22.40;38.30;;;;;;469007;253;1120;-45
2021/11/15 10:02:22;;;;;;;;;;;22.30;38.60;;;;;;468908;254;1354;-45
2021/11/15 10:04:23;;;;;;;;;;;22.10;38.90;;;;;;468934;253;1258;-46
2021/11/15 10:06:24;;;;;;;;;;;22.00;39.10;;;;;;468806;253;1275;-46
2021/11/15 10:08:26;;;;;;;;;;;21.80;39.30;;;;;;468867;253;1151;-46
2021/11/15 10:10:27;;;;;;;;;;;21.80;39.40;;;;;;468705;254;1091;-45
2021/11/15 10:12:28;;;;;;;;;;;21.80;39.50;;;;;;468596;253;1274;-47
2021/11/15 10:14:30;;;;;;;;;;;21.70;39.60;;;;;;468704;253;1169;-46
2021/11/15 10:16:32;;;;;;;;;;;21.70;39.70;;;;;;468918;253;2287;-45
2021/11/15 10:18:34;;;;;;;;;;;21.70;39.70;;;;;;468988;254;1131;-45
2021/11/15 10:20:35;;;;;;;;;;;21.60;39.70;;;;;;469041;253;1278;-46
2021/11/15 10:22:37;;;;;;;;;;;21.60;39.70;;;;;;469111;254;1220;-45
2021/11/15 10:24:39;;;;;;;;;;;21.50;39.80;;;;;;469128;253;1218;-45
2021/11/15 10:26:40;;;;;;;;;;;21.50;39.80;;;;;;468930;253;2219;-46
2021/11/15 10:28:41;;;;;;;;;;;21.50;39.90;;;;;;468948;253;1199;-46
2021/11/15 10:30:43;;;;;;;;;;;21.40;39.90;;;;;;468891;253;1126;-45
2021/11/15 10:32:44;;;;;;;;;;;21.50;40.00;;;;;;468720;253;2313;-45
2021/11/15 10:34:45;;;;;;;;;;;21.40;40.00;;;;;;468871;253;1128;-46
2021/11/15 10:36:46;;;;;;;;;;;21.40;40.10;;;;;;468795;254;2180;-46
2021/11/15 10:38:50;;;;;;;;;;;21.40;40.10;;;;;;468988;253;1164;-45
2021/11/15 10:40:49;;;;;;;;;;;21.40;40.10;;;;;;468997;253;1885;-46
2021/11/15 10:42:51;;;;;;;;;;;21.40;40.00;;;;;;469007;254;1299;-46
2021/11/15 10:44:52;;;;;;;;;;;21.40;40.00;;;;;;469050;253;1093;-45
2021/11/15 10:46:53;;;;;;;;;;;21.30;40.10;;;;;;469265;254;1363;-46
2021/11/15 10:48:54;;;;;;;;;;;21.40;40.10;;;;;;469195;254;1110;-46
2021/11/15 10:50:56;;;;;;;;;;;21.40;40.10;;;;;;469063;253;1247;-46
2021/11/15 10:52:57;;;;;;;;;;;21.30;40.00;;;;;;468946;253;2064;-46
2021/11/15 10:57:12;;;;;;;;;;;21.30;40.10;;;;;;469283;242;3583;-47
2021/11/15 10:59:13;;;;;;;;;;;21.30;40.10;;;;;;461776;257;1133;-46
2021/11/15 11:01:16;;;;;;;;;;;21.20;40.10;;;;;;461710;257;1199;-46
2021/11/15 11:03:18;;;;;;;;;;;21.30;40.20;;;;;;461509;257;1436;-46
2021/11/15 11:05:18;;;;;;;;;;;21.20;40.20;;;;;;461945;257;2331;-46
2021/11/15 11:07:20;;;;;;;;;;;21.30;40.20;;;;;;461587;257;1433;-46
2021/11/15 11:09:21;;;;;;;;;;;21.20;40.20;;;;;;461769;257;1192;-46
2021/11/15 11:11:23;;;;;;;;;;;21.20;40.20;;;;;;461721;257;1338;-46
2021/11/15 11:13:26;;;;;;;;;;;21.20;40.20;;;;;;462251;258;1201;-46
2021/11/15 11:15:29;;;;;;;;;;;21.20;40.20;;;;;;461895;257;2196;-46
2021/11/15 11:17:28;;;;;;;;;;;21.20;40.10;;;;;;461736;257;1942;-46
2021/11/15 11:19:31;;;;;;;;;;;21.20;40.10;;;;;;461747;258;1147;-46
2021/11/15 11:21:56;;;;;;;;;;;21.20;40.20;;;;;;461647;257;2111;-46
2021/11/15 11:24:08;;;;;;;;;;;21.20;40.20;;;;;;460773;258;2072;-46
2021/11/15 11:25:48;;;;;;;;;;;21.20;40.10;;;;;;460244;258;2382;-46
2021/11/15 11:27:50;;;;;;;;;;;21.20;40.20;;;;;;462023;257;1326;-46
2021/11/15 11:29:51;;;;;;;;;;;21.20;40.20;;;;;;461864;257;1080;-46
2021/11/15 11:31:52;;;;;;;;;;;21.20;40.20;;;;;;461720;257;1163;-46
2021/11/15 11:33:54;;;;;;;;;;;21.20;40.20;;;;;;461711;257;1306;-46
2021/11/15 11:35:55;;;;;;;;;;;21.20;40.20;;;;;;461631;257;2192;-46
2021/11/15 11:37:56;;;;;;;;;;;21.10;40.20;;;;;;461615;257;1160;-46
2021/11/15 11:39:59;;;;;;;;;;;21.20;40.20;;;;;;461654;258;1118;-46
2021/11/15 11:42:00;;;;;;;;;;;21.10;40.20;;;;;;461500;258;2355;-46
2021/11/15 11:44:02;;;;;;;;;;;21.10;40.20;;;;;;461674;257;1261;-46
2021/11/15 11:46:03;;;;;;;;;;;21.10;40.20;;;;;;461628;258;2407;-47
2021/11/15 11:48:03;;;;;;;;;;;21.20;40.20;;;;;;461694;257;1874;-46
2021/11/15 11:50:05;;;;;;;;;;;21.10;40.30;;;;;;461689;257;1235;-46
2021/11/15 11:52:06;;;;;;;;;;;21.10;40.30;;;;;;461631;257;1085;-46
2021/11/15 11:54:07;;;;;;;;;;;21.10;40.20;;;;;;461667;257;1083;-46
2021/11/15 11:56:09;;;;;;;;;;;21.10;40.20;;;;;;461774;258;2207;-46
2021/11/15 11:58:10;;;;;;;;;;;21.10;40.20;;;;;;461987;258;1226;-47
2021/11/15 12:00:12;;;;;;;;;;;21.10;40.30;;;;;;461811;257;1581;-46